Time;durP1;ratioP1;P1;durP2;ratioP2;P2;SDS_P1;SDS_P2;PMS_P1;PMS_P2;Temp;Humidity;BMP_temperature;BMP_pressure;BME280_temperature;BME280_humidity;BME280_pressure;Samples;Min_cycle;Max_cycle;Signal;HPM_P1;HPM_P2
2021/01/23 00:01:18;;;;;;;3.63;1.80;;;;;;;;;;5057457;28;20211;-70
2021/01/23 00:03:46;;;;;;;2.20;1.37;;;;;;;;;;5057513;28;20242;-70
2021/01/23 00:06:12;;;;;;;3.30;1.33;;;;;;;;;;5057288;28;20461;-70
2021/01/23 00:08:39;;;;;;;2.43;1.53;;;;;;;;;;5057419;28;20240;-69
2021/01/23 00:11:08;;;;;;;1.87;1.30;;;;;;;;;;5057243;28;20546;-69
2021/01/23 00:13:35;;;;;;;2.60;1.50;;;;;;;;;;5057527;28;20222;-70
2021/01/23 00:16:02;;;;;;;3.13;1.40;;;;;;;;;;5057571;28;20497;-70
2021/01/23 00:18:29;;;;;;;2.50;1.20;;;;;;;;;;5057452;28;20620;-69
2021/01/23 00:20:56;;;;;;;1.43;1.13;;;;;;;;;;5057264;28;20238;-70
2021/01/23 00:23:23;;;;;;;2.10;1.63;;;;;;;;;;5057253;28;20203;-70
2021/01/23 00:25:50;;;;;;;8.33;1.70;;;;;;;;;;5057501;28;20294;-70
2021/01/23 00:28:18;;;;;;;3.50;1.47;;;;;;;;;;5057184;28;20537;-70
2021/01/23 00:30:45;;;;;;;4.80;1.60;;;;;;;;;;5057582;28;20440;-69
2021/01/23 00:33:12;;;;;;;4.23;1.57;;;;;;;;;;5057031;28;20489;-70
2021/01/23 00:35:39;;;;;;;4.70;1.80;;;;;;;;;;5056791;28;21278;-70
2021/01/23 00:38:06;;;;;;;2.00;1.70;;;;;;;;;;5057421;28;20457;-70
2021/01/23 00:40:33;;;;;;;1.00;1.00;;;;;;;;;;5057055;28;21055;-70
2021/01/23 00:43:00;;;;;;;1.30;1.20;;;;;;;;;;5057222;28;20484;-70
2021/01/23 00:45:28;;;;;;;1.87;1.27;;;;;;;;;;5057176;28;20524;-70
2021/01/23 00:47:55;;;;;;;3.57;1.20;;;;;;;;;;5057314;28;20654;-70
2021/01/23 00:50:22;;;;;;;3.53;1.30;;;;;;;;;;5056948;28;20222;-70
2021/01/23 00:52:49;;;;;;;1.70;1.40;;;;;;;;;;5057148;28;20211;-70
2021/01/23 00:55:17;;;;;;;4.63;1.70;;;;;;;;;;5056930;28;20261;-70
2021/01/23 00:57:44;;;;;;;2.53;1.57;;;;;;;;;;5057119;28;20289;-70
2021/01/23 01:00:12;;;;;;;3.03;1.20;;;;;;;;;;5057044;28;20286;-70
2021/01/23 01:02:41;;;;;;;5.40;1.70;;;;;;;;;;5057188;28;20203;-70
2021/01/23 01:05:09;;;;;;;2.47;1.47;;;;;;;;;;5060182;28;20257;-70
2021/01/23 01:07:36;;;;;;;1.90;1.53;;;;;;;;;;5060514;28;20214;-70
2021/01/23 01:10:04;;;;;;;2.30;1.57;;;;;;;;;;5060740;28;20293;-70
2021/01/23 01:12:32;;;;;;;3.23;1.23;;;;;;;;;;5060354;28;20796;-70
2021/01/23 01:14:59;;;;;;;5.73;2.10;;;;;;;;;;5060535;28;20233;-70
2021/01/23 01:17:26;;;;;;;5.40;1.73;;;;;;;;;;5060574;28;20286;-70
2021/01/23 01:19:54;;;;;;;3.07;1.60;;;;;;;;;;5060303;28;20213;-70
2021/01/23 01:22:21;;;;;;;3.60;1.87;;;;;;;;;;5059991;28;20437;-70
2021/01/23 01:24:48;;;;;;;4.37;1.80;;;;;;;;;;5060192;28;20984;-70
2021/01/23 01:27:15;;;;;;;6.97;1.70;;;;;;;;;;5060004;28;20444;-69
2021/01/23 01:29:42;;;;;;;4.80;1.73;;;;;;;;;;5060398;28;20462;-70
2021/01/23 01:32:09;;;;;;;4.20;1.40;;;;;;;;;;5060029;28;20210;-69
2021/01/23 01:34:36;;;;;;;3.27;1.50;;;;;;;;;;5060037;28;20520;-69
2021/01/23 01:37:04;;;;;;;3.87;1.60;;;;;;;;;;5059843;28;20502;-70
2021/01/23 01:39:31;;;;;;;2.37;1.40;;;;;;;;;;5059904;28;20416;-69
2021/01/23 01:41:58;;;;;;;4.13;1.13;;;;;;;;;;5059678;28;20445;-70
2021/01/23 01:44:25;;;;;;;1.40;1.27;;;;;;;;;;5060033;28;20246;-70
2021/01/23 01:46:52;;;;;;;1.97;1.20;;;;;;;;;;5059734;28;20195;-69
2021/01/23 01:49:19;;;;;;;1.53;1.00;;;;;;;;;;5059928;28;20257;-69
2021/01/23 01:51:46;;;;;;;1.17;1.07;;;;;;;;;;5059691;28;20293;-70
2021/01/23 01:54:14;;;;;;;5.30;1.13;;;;;;;;;;5059350;28;20595;-70
2021/01/23 01:56:42;;;;;;;2.77;1.37;;;;;;;;;;5059510;28;20211;-70
2021/01/23 01:59:09;;;;;;;3.77;1.73;;;;;;;;;;5059643;28;20218;-70
2021/01/23 02:01:35;;;;;;;2.87;1.50;;;;;;;;;;5059505;28;20289;-70
2021/01/23 02:04:08;;;;;;;4.10;1.97;;;;;;;;;;5059541;28;20203;-70
2021/01/23 02:06:46;;;;;;;4.80;1.90;;;;;;;;;;5059197;28;20211;-70
2021/01/23 02:09:18;;;;;;;4.23;1.83;;;;;;;;;;5059263;28;20206;-70
2021/01/23 02:11:50;;;;;;;5.93;2.20;;;;;;;;;;5059535;28;20207;-70
2021/01/23 02:14:20;;;;;;;4.03;2.23;;;;;;;;;;5058893;28;20281;-70
2021/01/23 02:16:48;;;;;;;2.83;1.67;;;;;;;;;;5059567;28;20218;-70
2021/01/23 02:19:29;;;;;;;5.23;2.00;;;;;;;;;;5059204;28;20202;-70
2021/01/23 02:22:16;;;;;;;3.43;1.77;;;;;;;;;;5058915;28;20215;-70
2021/01/23 02:24:45;;;;;;;3.13;1.83;;;;;;;;;;5054442;28;20313;-70
2021/01/23 02:27:18;;;;;;;2.53;1.43;;;;;;;;;;5058904;28;20541;-70
2021/01/23 02:29:53;;;;;;;3.10;1.60;;;;;;;;;;5059059;28;20203;-70
2021/01/23 02:32:21;;;;;;;4.67;1.27;;;;;;;;;;5059082;28;20220;-70
2021/01/23 02:34:49;;;;;;;1.50;1.30;;;;;;;;;;5058831;28;20230;-69
2021/01/23 02:37:18;;;;;;;2.73;1.10;;;;;;;;;;5058587;28;20268;-70
2021/01/23 02:39:45;;;;;;;1.33;1.20;;;;;;;;;;5058718;28;20245;-69
2021/01/23 02:42:12;;;;;;;2.27;1.30;;;;;;;;;;5058835;28;20294;-70
2021/01/23 02:44:40;;;;;;;1.60;1.00;;;;;;;;;;5058780;28;20258;-69
2021/01/23 02:47:07;;;;;;;1.57;1.40;;;;;;;;;;5058565;28;20570;-69
2021/01/23 02:49:35;;;;;;;3.80;1.10;;;;;;;;;;5058852;28;20203;-70
2021/01/23 02:52:04;;;;;;;2.70;1.50;;;;;;;;;;5058539;28;20293;-70
2021/01/23 02:54:35;;;;;;;1.27;1.10;;;;;;;;;;5058562;28;20266;-70
2021/01/23 02:57:02;;;;;;;1.77;1.30;;;;;;;;;;5058584;28;20575;-70
2021/01/23 02:59:30;;;;;;;1.53;1.23;;;;;;;;;;5058596;28;20215;-69
2021/01/23 03:01:58;;;;;;;2.60;1.43;;;;;;;;;;5058498;28;20678;-70
2021/01/23 03:04:26;;;;;;;2.73;1.80;;;;;;;;;;5058155;28;20226;-70
2021/01/23 03:06:55;;;;;;;1.83;1.63;;;;;;;;;;5058270;28;20209;-70
2021/01/23 03:09:23;;;;;;;4.37;1.80;;;;;;;;;;5058360;28;20203;-70
2021/01/23 03:11:51;;;;;;;3.10;1.73;;;;;;;;;;5058123;28;20298;-69
2021/01/23 03:14:18;;;;;;;2.83;1.60;;;;;;;;;;5057918;28;20241;-69
2021/01/23 03:16:46;;;;;;;3.53;1.83;;;;;;;;;;5058284;28;20210;-69
2021/01/23 03:19:13;;;;;;;2.83;1.20;;;;;;;;;;5058061;28;20205;-70
2021/01/23 03:21:40;;;;;;;3.87;1.80;;;;;;;;;;5057945;28;20650;-69
2021/01/23 03:24:08;;;;;;;4.00;1.77;;;;;;;;;;5058028;28;20209;-70
2021/01/23 03:26:35;;;;;;;3.00;1.80;;;;;;;;;;5057386;28;20242;-70
2021/01/23 03:29:03;;;;;;;2.77;1.60;;;;;;;;;;5058118;28;20203;-69
2021/01/23 03:31:30;;;;;;;3.77;1.93;;;;;;;;;;5058147;28;20294;-70
2021/01/23 03:33:57;;;;;;;4.43;1.80;;;;;;;;;;5057881;28;20231;-70
2021/01/23 03:36:24;;;;;;;5.47;3.57;;;;;;;;;;5057635;28;20285;-69
2021/01/23 03:38:51;;;;;;;3.43;2.30;;;;;;;;;;5057998;28;20227;-70
2021/01/23 03:41:19;;;;;;;3.90;2.43;;;;;;;;;;5057697;28;20214;-70
2021/01/23 03:43:46;;;;;;;2.43;2.10;;;;;;;;;;5058081;28;20207;-70
2021/01/23 03:46:13;;;;;;;2.30;1.93;;;;;;;;;;5057407;28;20309;-70
2021/01/23 03:48:41;;;;;;;5.13;1.70;;;;;;;;;;5057700;28;20574;-70
2021/01/23 03:51:08;;;;;;;4.53;1.57;;;;;;;;;;5057301;28;20294;-70
2021/01/23 03:53:34;;;;;;;3.23;1.50;;;;;;;;;;5057500;28;20230;-70
2021/01/23 03:56:03;;;;;;;1.97;1.10;;;;;;;;;;5057283;28;20226;-70
2021/01/23 03:58:31;;;;;;;4.83;1.53;;;;;;;;;;5057936;28;20210;-70
2021/01/23 04:00:58;;;;;;;2.93;1.70;;;;;;;;;;5057527;28;20203;-70
2021/01/23 04:03:25;;;;;;;2.20;1.53;;;;;;;;;;5057638;28;20309;-70
2021/01/23 04:05:52;;;;;;;2.73;1.50;;;;;;;;;;5057377;28;20265;-70
2021/01/23 04:08:19;;;;;;;2.77;1.83;;;;;;;;;;5057881;28;20249;-69
2021/01/23 04:10:46;;;;;;;2.93;1.30;;;;;;;;;;5057923;28;20221;-70
2021/01/23 04:13:13;;;;;;;1.60;1.50;;;;;;;;;;5057660;28;20206;-70
2021/01/23 04:15:41;;;;;;;1.60;1.23;;;;;;;;;;5057311;28;20226;-70
2021/01/23 04:18:08;;;;;;;2.07;1.43;;;;;;;;;;5057438;28;20293;-69
2021/01/23 04:20:35;;;;;;;2.77;1.30;;;;;;;;;;5056932;28;20298;-70
2021/01/23 04:23:02;;;;;;;4.23;1.70;;;;;;;;;;5057585;28;20211;-70
2021/01/23 04:25:29;;;;;;;2.27;1.27;;;;;;;;;;5057534;28;20222;-70
2021/01/23 04:27:56;;;;;;;4.03;1.20;;;;;;;;;;5057094;28;20209;-69
2021/01/23 04:30:24;;;;;;;1.33;1.23;;;;;;;;;;5057756;28;20291;-70
2021/01/23 04:32:52;;;;;;;1.87;1.37;;;;;;;;;;5057470;28;20294;-70
2021/01/23 04:35:19;;;;;;;1.93;1.17;;;;;;;;;;5056817;28;20284;-69
2021/01/23 04:37:46;;;;;;;1.53;1.13;;;;;;;;;;5058688;28;20207;-70
2021/01/23 04:40:13;;;;;;;4.30;1.93;;;;;;;;;;5060910;28;20668;-69
2021/01/23 04:42:40;;;;;;;3.93;2.00;;;;;;;;;;5061058;28;20213;-69
2021/01/23 04:45:08;;;;;;;3.50;1.80;;;;;;;;;;5061032;28;20227;-69
2021/01/23 04:47:35;;;;;;;3.73;2.00;;;;;;;;;;5053054;28;20211;-69
2021/01/23 04:50:04;;;;;;;3.80;1.67;;;;;;;;;;5060822;28;20246;-70
2021/01/23 04:52:34;;;;;;;4.10;1.77;;;;;;;;;;5060769;28;20233;-70
2021/01/23 04:55:03;;;;;;;3.33;1.70;;;;;;;;;;5060602;28;20239;-69
2021/01/23 04:57:30;;;;;;;6.07;2.10;;;;;;;;;;5060571;28;20239;-69
2021/01/23 04:59:57;;;;;;;3.13;1.97;;;;;;;;;;5060861;28;20562;-70
2021/01/23 05:02:24;;;;;;;3.87;1.70;;;;;;;;;;5060607;28;20286;-69
2021/01/23 05:04:55;;;;;;;3.13;1.83;;;;;;;;;;5060782;28;20280;-69
2021/01/23 05:07:29;;;;;;;3.10;2.07;;;;;;;;;;5060292;28;20221;-70
2021/01/23 05:09:57;;;;;;;3.90;1.70;;;;;;;;;;5060766;28;20734;-70
2021/01/23 05:12:37;;;;;;;4.00;1.50;;;;;;;;;;5060456;28;20229;-70
2021/01/23 05:15:05;;;;;;;5.13;1.77;;;;;;;;;;5060531;28;20230;-70
2021/01/23 05:17:44;;;;;;;1.50;1.27;;;;;;;;;;5060528;28;20289;-70
2021/01/23 05:20:12;;;;;;;1.50;1.40;;;;;;;;;;5060260;28;20215;-69
2021/01/23 05:22:48;;;;;;;4.00;1.87;;;;;;;;;;5047837;28;20677;-70
2021/01/23 05:25:16;;;;;;;1.50;1.40;;;;;;;;;;5060489;28;20674;-70
2021/01/23 05:27:45;;;;;;;3.17;1.80;;;;;;;;;;5060095;28;20571;-70
2021/01/23 05:30:12;;;;;;;1.93;1.83;;;;;;;;;;5060349;28;20213;-70
2021/01/23 05:32:40;;;;;;;6.10;1.90;;;;;;;;;;5060649;28;20207;-69
2021/01/23 05:35:13;;;;;;;2.97;2.00;;;;;;;;;;5059576;28;20563;-70
2021/01/23 05:37:40;;;;;;;2.60;1.90;;;;;;;;;;5060405;28;20203;-69
2021/01/23 05:40:09;;;;;;;3.80;1.87;;;;;;;;;;5059745;28;20242;-69
2021/01/23 05:42:43;;;;;;;4.43;2.00;;;;;;;;;;5059755;28;20211;-70
2021/01/23 05:45:11;;;;;;;2.70;2.00;;;;;;;;;;5059768;28;20747;-70
2021/01/23 05:47:38;;;;;;;2.70;2.00;;;;;;;;;;5052923;28;20291;-70
2021/01/23 05:50:06;;;;;;;2.77;1.47;;;;;;;;;;5058777;28;20217;-70
2021/01/23 05:52:34;;;;;;;4.27;1.90;;;;;;;;;;5059586;28;20637;-70
2021/01/23 05:55:01;;;;;;;2.43;1.90;;;;;;;;;;5059796;28;20226;-70
2021/01/23 05:57:29;;;;;;;2.33;2.03;;;;;;;;;;5059449;28;20205;-70
2021/01/23 05:59:56;;;;;;;3.53;2.03;;;;;;;;;;5059534;28;20210;-70
2021/01/23 06:02:23;;;;;;;4.07;1.77;;;;;;;;;;5059469;28;20242;-70
2021/01/23 06:04:51;;;;;;;4.47;2.27;;;;;;;;;;5059543;28;20230;-70
2021/01/23 06:07:52;;;;;;;2.17;1.83;;;;;;;;;;5059164;28;20571;-70
2021/01/23 06:10:46;;;;;;;3.63;2.03;;;;;;;;;;4998079;28;20205;-70
2021/01/23 06:13:31;;;;;;;3.70;1.87;;;;;;;;;;4964552;28;20740;-70
2021/01/23 06:15:58;;;;;;;3.43;2.20;;;;;;;;;;5044176;28;20231;-70
2021/01/23 06:18:29;;;;;;;3.17;2.27;;;;;;;;;;5059188;28;20565;-70
2021/01/23 06:20:56;;;;;;;2.73;1.87;;;;;;;;;;5059114;28;20221;-69
2021/01/23 06:23:43;;;;;;;4.17;2.10;;;;;;;;;;5059335;28;20234;-69
2021/01/23 06:26:10;;;;;;;4.20;2.10;;;;;;;;;;5058777;28;20233;-70
2021/01/23 06:28:53;;;;;;;2.70;2.00;;;;;;;;;;5059223;28;20286;-69
2021/01/23 06:31:31;;;;;;;2.33;1.90;;;;;;;;;;5059262;28;20220;-70
2021/01/23 06:33:58;;;;;;;6.43;2.20;;;;;;;;;;5059045;28;20207;-70
2021/01/23 06:36:26;;;;;;;2.93;1.80;;;;;;;;;;5058484;28;20205;-70
2021/01/23 06:39:00;;;;;;;2.77;1.70;;;;;;;;;;5058824;28;20570;-69
2021/01/23 06:41:32;;;;;;;2.37;1.63;;;;;;;;;;5058344;28;20209;-68
2021/01/23 06:44:09;;;;;;;3.47;1.90;;;;;;;;;;5058779;28;20207;-68
2021/01/23 06:46:37;;;;;;;2.17;1.70;;;;;;;;;;5058342;28;20684;-68
2021/01/23 06:49:05;;;;;;;2.80;1.67;;;;;;;;;;5058603;28;20660;-68
2021/01/23 06:51:32;;;;;;;3.80;1.97;;;;;;;;;;5058217;28;20206;-67
2021/01/23 06:54:14;;;;;;;3.70;2.17;;;;;;;;;;5058336;28;20592;-67
2021/01/23 06:56:42;;;;;;;1.63;1.47;;;;;;;;;;5057909;28;20215;-68
2021/01/23 06:59:20;;;;;;;2.67;1.77;;;;;;;;;;5067145;28;20261;-69
2021/01/23 07:01:54;;;;;;;7.73;2.33;;;;;;;;;;5065140;28;20634;-69
2021/01/23 07:04:21;;;;;;;4.50;2.00;;;;;;;;;;5055073;28;20214;-69
2021/01/23 07:06:48;;;;;;;8.10;1.90;;;;;;;;;;5056985;28;20203;-68
2021/01/23 07:09:15;;;;;;;4.87;2.10;;;;;;;;;;5056791;28;20805;-68
2021/01/23 07:11:42;;;;;;;1.60;1.43;;;;;;;;;;5056704;28;20891;-68
2021/01/23 07:14:09;;;;;;;2.57;1.60;;;;;;;;;;5056674;28;20484;-67
2021/01/23 07:16:37;;;;;;;2.30;1.80;;;;;;;;;;5054376;28;20470;-68
2021/01/23 07:19:06;;;;;;;4.10;1.53;;;;;;;;;;5056999;28;20438;-68
2021/01/23 07:21:34;;;;;;;2.73;1.93;;;;;;;;;;5056067;28;20472;-68
2021/01/23 07:24:01;;;;;;;3.93;2.00;;;;;;;;;;5054046;28;20796;-68
2021/01/23 07:26:28;;;;;;;3.40;1.80;;;;;;;;;;5068380;28;20995;-66
2021/01/23 07:28:56;;;;;;;4.13;2.10;;;;;;;;;;5059468;28;20895;-67
2021/01/23 07:31:23;;;;;;;2.50;1.83;;;;;;;;;;5056944;28;20499;-68
2021/01/23 07:33:51;;;;;;;5.30;2.10;;;;;;;;;;5056708;28;20441;-67
2021/01/23 07:36:29;;;;;;;3.40;1.67;;;;;;;;;;5054934;28;20442;-67
2021/01/23 07:38:56;;;;;;;2.27;1.97;;;;;;;;;;5056185;28;20473;-69
2021/01/23 07:41:23;;;;;;;3.90;1.90;;;;;;;;;;5056204;28;20823;-68
2021/01/23 07:43:51;;;;;;;3.90;1.80;;;;;;;;;;5056513;28;20477;-68
2021/01/23 07:46:18;;;;;;;2.50;1.73;;;;;;;;;;5056022;28;20434;-67
2021/01/23 07:48:45;;;;;;;3.03;2.03;;;;;;;;;;5056188;28;20885;-67
2021/01/23 07:51:21;;;;;;;3.30;1.80;;;;;;;;;;5056130;28;20495;-68
2021/01/23 07:54:03;;;;;;;2.03;1.90;;;;;;;;;;5054920;28;20437;-68
2021/01/23 07:56:31;;;;;;;3.63;2.10;;;;;;;;;;5055410;28;20475;-67
2021/01/23 07:58:58;;;;;;;7.13;3.60;;;;;;;;;;5055957;28;20441;-69
2021/01/23 08:01:25;;;;;;;5.20;2.30;;;;;;;;;;5056560;28;20285;-68
2021/01/23 08:03:53;;;;;;;3.83;2.07;;;;;;;;;;5054565;28;20199;-68
2021/01/23 08:06:21;;;;;;;2.50;1.67;;;;;;;;;;5060743;28;20206;-67
2021/01/23 08:08:49;;;;;;;2.87;2.07;;;;;;;;;;5067605;28;20290;-67
2021/01/23 08:11:47;;;;;;;4.33;2.70;;;;;;;;;;5066270;28;20202;-67
2021/01/23 08:14:15;;;;;;;3.50;3.13;;;;;;;;;;4988945;28;20241;-67
2021/01/23 08:16:51;;;;;;;2.60;2.20;;;;;;;;;;5053198;28;20207;-67
2021/01/23 08:19:18;;;;;;;4.27;2.43;;;;;;;;;;5067705;28;20202;-67
2021/01/23 08:22:00;;;;;;;4.30;1.77;;;;;;;;;;5071396;28;20202;-67
2021/01/23 08:24:28;;;;;;;4.27;2.17;;;;;;;;;;5066148;28;20296;-66
2021/01/23 08:26:58;;;;;;;2.67;1.47;;;;;;;;;;5064357;28;20221;-67
2021/01/23 08:29:26;;;;;;;2.53;2.10;;;;;;;;;;5058984;28;20206;-67
2021/01/23 08:32:00;;;;;;;6.13;2.83;;;;;;;;;;5061076;28;20206;-67
2021/01/23 08:34:27;;;;;;;3.47;2.10;;;;;;;;;;5061104;28;20218;-67
2021/01/23 08:36:54;;;;;;;5.13;3.17;;;;;;;;;;5061101;28;20215;-67
2021/01/23 08:39:21;;;;;;;3.93;2.23;;;;;;;;;;5060887;28;20329;-67
2021/01/23 08:41:48;;;;;;;2.40;1.20;;;;;;;;;;5060791;28;20677;-67
2021/01/23 08:44:15;;;;;;;3.63;1.60;;;;;;;;;;5060887;28;20231;-67
2021/01/23 08:46:43;;;;;;;3.30;1.70;;;;;;;;;;5060612;28;20211;-67
2021/01/23 08:49:10;;;;;;;3.03;1.53;;;;;;;;;;5060137;28;20195;-67
2021/01/23 08:51:38;;;;;;;3.73;1.70;;;;;;;;;;5060155;28;20603;-67
2021/01/23 08:54:05;;;;;;;2.27;1.40;;;;;;;;;;5060432;28;20231;-67
2021/01/23 08:56:32;;;;;;;7.77;2.00;;;;;;;;;;5060290;28;20195;-67
2021/01/23 08:58:58;;;;;;;2.37;1.40;;;;;;;;;;5060332;28;20282;-67
2021/01/23 09:01:25;;;;;;;2.97;1.37;;;;;;;;;;5057831;28;20203;-67
2021/01/23 09:03:55;;;;;;;2.20;2.00;;;;;;;;;;5059713;28;20238;-68
2021/01/23 09:06:22;;;;;;;1.93;1.47;;;;;;;;;;5059964;28;20203;-68
2021/01/23 09:08:49;;;;;;;3.17;1.57;;;;;;;;;;5060074;28;20203;-68
2021/01/23 09:11:16;;;;;;;3.07;1.77;;;;;;;;;;5057482;28;20206;-69
2021/01/23 09:13:43;;;;;;;2.83;1.70;;;;;;;;;;5060168;28;20194;-67
2021/01/23 09:16:10;;;;;;;4.93;2.37;;;;;;;;;;5060097;28;20674;-66
2021/01/23 09:18:37;;;;;;;2.73;1.77;;;;;;;;;;5057645;28;20202;-68
2021/01/23 09:21:05;;;;;;;4.07;2.07;;;;;;;;;;5059574;28;20195;-68
2021/01/23 09:23:32;;;;;;;3.17;2.00;;;;;;;;;;5059742;28;20317;-70
2021/01/23 09:26:02;;;;;;;2.77;2.10;;;;;;;;;;5059217;28;20219;-70
2021/01/23 09:28:29;;;;;;;3.27;1.47;;;;;;;;;;5059688;28;20206;-70
2021/01/23 09:30:56;;;;;;;7.20;3.80;;;;;;;;;;5056814;28;20678;-70
2021/01/23 09:33:23;;;;;;;5.97;3.80;;;;;;;;;;5059690;28;20670;-69
2021/01/23 09:35:51;;;;;;;5.80;3.40;;;;;;;;;;5057737;28;20586;-69
2021/01/23 09:38:19;;;;;;;6.40;4.37;;;;;;;;;;5058845;28;20195;-70
2021/01/23 09:40:46;;;;;;;5.40;2.40;;;;;;;;;;5058554;28;20195;-69
2021/01/23 09:43:13;;;;;;;4.23;2.10;;;;;;;;;;5059774;28;20214;-69
2021/01/23 09:45:40;;;;;;;2.17;1.83;;;;;;;;;;5059454;28;20226;-69
2021/01/23 09:48:07;;;;;;;3.87;1.67;;;;;;;;;;5056995;28;20286;-69
2021/01/23 09:50:42;;;;;;;3.63;1.83;;;;;;;;;;5059091;28;20195;-69
2021/01/23 09:53:09;;;;;;;2.83;2.20;;;;;;;;;;5058604;28;20572;-70
2021/01/23 09:55:37;;;;;;;4.73;1.97;;;;;;;;;;5058449;28;20323;-69
2021/01/23 09:58:04;;;;;;;3.23;2.10;;;;;;;;;;5059424;28;20285;-70
2021/01/23 10:00:31;;;;;;;3.13;2.10;;;;;;;;;;5059156;28;20211;-69
2021/01/23 10:02:59;;;;;;;3.80;2.13;;;;;;;;;;5059768;28;20211;-69
2021/01/23 10:05:27;;;;;;;3.33;1.70;;;;;;;;;;5059228;28;20281;-68
2021/01/23 10:07:54;;;;;;;7.47;2.13;;;;;;;;;;5058182;28;20297;-69
2021/01/23 10:10:21;;;;;;;3.43;2.10;;;;;;;;;;5057483;28;20255;-68
2021/01/23 10:12:49;;;;;;;2.23;1.90;;;;;;;;;;5057265;28;20544;-67
2021/01/23 10:15:16;;;;;;;2.60;1.50;;;;;;;;;;5057447;28;20234;-68
2021/01/23 10:17:42;;;;;;;3.47;2.30;;;;;;;;;;5057877;28;20306;-69
2021/01/23 10:20:10;;;;;;;2.47;1.80;;;;;;;;;;5057514;28;20238;-68
2021/01/23 10:22:37;;;;;;;1.97;1.53;;;;;;;;;;5058349;28;20230;-70
2021/01/23 10:25:05;;;;;;;3.20;1.73;;;;;;;;;;5058999;28;20701;-70
2021/01/23 10:27:32;;;;;;;1.37;1.27;;;;;;;;;;5059130;28;20207;-71
2021/01/23 10:30:00;;;;;;;2.60;1.33;;;;;;;;;;5059258;28;20298;-71
2021/01/23 10:32:28;;;;;;;1.40;1.30;;;;;;;;;;5058933;28;20271;-70
2021/01/23 10:34:55;;;;;;;2.50;2.30;;;;;;;;;;5058106;28;20631;-71
2021/01/23 10:37:22;;;;;;;2.27;1.30;;;;;;;;;;5058711;28;20207;-70
2021/01/23 10:39:49;;;;;;;2.60;1.60;;;;;;;;;;5058868;28;20231;-70
2021/01/23 10:42:16;;;;;;;3.53;1.60;;;;;;;;;;5058831;28;20272;-70
2021/01/23 10:44:43;;;;;;;1.30;1.20;;;;;;;;;;5058870;28;20307;-70
2021/01/23 10:47:12;;;;;;;3.03;1.33;;;;;;;;;;5058486;28;20298;-70
2021/01/23 10:49:39;;;;;;;2.03;1.27;;;;;;;;;;5058683;28;20225;-70
2021/01/23 10:52:06;;;;;;;2.50;1.20;;;;;;;;;;5058234;28;20261;-70
2021/01/23 10:54:33;;;;;;;1.60;1.50;;;;;;;;;;5058987;28;20231;-71
2021/01/23 10:57:02;;;;;;;5.73;1.70;;;;;;;;;;5058454;28;20202;-71
2021/01/23 10:59:28;;;;;;;2.97;2.13;;;;;;;;;;5058487;28;20277;-71
2021/01/23 11:01:55;;;;;;;3.20;1.90;;;;;;;;;;5054775;28;20569;-70
2021/01/23 11:04:24;;;;;;;6.40;1.80;;;;;;;;;;5058094;28;20223;-71
2021/01/23 11:06:50;;;;;;;3.43;1.40;;;;;;;;;;5058024;28;20290;-71
2021/01/23 11:09:17;;;;;;;2.67;1.70;;;;;;;;;;5058065;28;20226;-70
2021/01/23 11:11:44;;;;;;;4.67;3.03;;;;;;;;;;5057937;28;20289;-71
2021/01/23 11:14:11;;;;;;;2.70;1.80;;;;;;;;;;5057909;28;20637;-71
2021/01/23 11:16:39;;;;;;;2.80;1.80;;;;;;;;;;5057951;28;20233;-71
2021/01/23 11:19:06;;;;;;;2.53;1.93;;;;;;;;;;5057960;28;20687;-70
2021/01/23 11:21:35;;;;;;;3.67;1.40;;;;;;;;;;5057662;28;20307;-70
2021/01/23 11:24:02;;;;;;;3.07;1.87;;;;;;;;;;5058170;28;20281;-71
2021/01/23 11:26:33;;;;;;;1.93;1.47;;;;;;;;;;5058063;28;20207;-71
2021/01/23 11:29:00;;;;;;;2.37;1.43;;;;;;;;;;5058024;28;20713;-70
2021/01/23 11:31:27;;;;;;;3.60;1.80;;;;;;;;;;5058108;28;20717;-71
2021/01/23 11:33:54;;;;;;;1.90;1.33;;;;;;;;;;5057957;28;20286;-71
2021/01/23 11:36:21;;;;;;;2.67;1.70;;;;;;;;;;5057395;28;20226;-70
2021/01/23 11:38:49;;;;;;;3.97;1.70;;;;;;;;;;5057743;28;20736;-71
2021/01/23 11:41:16;;;;;;;4.13;1.90;;;;;;;;;;5057688;28;20206;-70
2021/01/23 11:43:43;;;;;;;5.43;1.57;;;;;;;;;;5057865;28;20215;-70
2021/01/23 11:46:10;;;;;;;4.57;1.60;;;;;;;;;;5057595;28;20227;-70
2021/01/23 11:48:37;;;;;;;1.90;1.20;;;;;;;;;;5057227;28;20722;-71
2021/01/23 11:51:04;;;;;;;4.43;0.97;;;;;;;;;;5057538;28;20293;-71
2021/01/23 11:53:32;;;;;;;1.83;1.00;;;;;;;;;;5057444;28;20217;-71
2021/01/23 11:55:59;;;;;;;2.70;0.90;;;;;;;;;;5057673;28;20231;-70
2021/01/23 11:58:26;;;;;;;2.10;1.07;;;;;;;;;;5057444;28;20629;-70
2021/01/23 12:00:53;;;;;;;3.33;1.17;;;;;;;;;;5057832;28;20207;-71
2021/01/23 12:03:20;;;;;;;1.87;1.30;;;;;;;;;;5057860;28;20264;-70
2021/01/23 12:05:47;;;;;;;2.53;1.47;;;;;;;;;;5057448;28;20310;-70
2021/01/23 12:08:14;;;;;;;2.37;1.20;;;;;;;;;;5057456;28;20209;-70
2021/01/23 12:10:41;;;;;;;1.97;1.53;;;;;;;;;;5057293;28;20330;-71
2021/01/23 12:13:09;;;;;;;2.33;1.50;;;;;;;;;;5057120;28;20710;-70
2021/01/23 12:15:36;;;;;;;2.20;1.30;;;;;;;;;;5057234;28;20237;-71
2021/01/23 12:18:03;;;;;;;3.37;1.30;;;;;;;;;;5057367;28;20667;-71
2021/01/23 12:20:30;;;;;;;1.10;1.10;;;;;;;;;;5057348;28;20214;-70
2021/01/23 12:22:57;;;;;;;2.27;1.40;;;;;;;;;;5057231;28;20293;-71
2021/01/23 12:25:25;;;;;;;1.73;1.47;;;;;;;;;;5057623;28;20237;-70
2021/01/23 12:27:53;;;;;;;1.73;1.37;;;;;;;;;;5057457;28;20211;-71
2021/01/23 12:30:21;;;;;;;4.27;1.40;;;;;;;;;;5057538;28;20297;-71
2021/01/23 12:32:49;;;;;;;2.13;1.10;;;;;;;;;;5057426;28;20206;-71
2021/01/23 12:35:16;;;;;;;2.90;1.10;;;;;;;;;;5057140;28;20223;-70
2021/01/23 12:37:44;;;;;;;2.30;1.50;;;;;;;;;;5057510;28;20218;-70
2021/01/23 12:40:12;;;;;;;2.30;1.00;;;;;;;;;;5057098;28;20710;-70
2021/01/23 12:42:40;;;;;;;2.83;0.80;;;;;;;;;;5057090;28;20214;-70
2021/01/23 12:45:08;;;;;;;1.23;0.80;;;;;;;;;;5057235;28;20314;-69
2021/01/23 12:47:36;;;;;;;3.53;0.80;;;;;;;;;;5044570;28;20308;-68
2021/01/23 12:50:04;;;;;;;1.53;0.93;;;;;;;;;;5056889;28;20218;-68
2021/01/23 12:52:30;;;;;;;0.93;0.87;;;;;;;;;;5055274;28;20199;-68
2021/01/23 12:54:57;;;;;;;2.73;0.90;;;;;;;;;;5056753;28;20219;-67
2021/01/23 12:57:24;;;;;;;3.10;1.10;;;;;;;;;;5056998;28;20290;-68
2021/01/23 12:59:51;;;;;;;1.43;0.97;;;;;;;;;;5060073;28;20234;-67
2021/01/23 13:02:18;;;;;;;1.87;1.10;;;;;;;;;;5061060;28;20217;-68
2021/01/23 13:04:46;;;;;;;1.00;0.90;;;;;;;;;;5060306;28;20233;-68
2021/01/23 13:07:13;;;;;;;1.40;0.80;;;;;;;;;;5060922;28;20215;-68
2021/01/23 13:09:40;;;;;;;0.63;0.63;;;;;;;;;;5060716;28;20206;-68
2021/01/23 13:12:07;;;;;;;1.57;1.00;;;;;;;;;;5060707;28;20214;-68
2021/01/23 13:14:34;;;;;;;1.50;1.00;;;;;;;;;;5060402;28;20265;-68
2021/01/23 13:17:01;;;;;;;2.20;0.70;;;;;;;;;;5060559;28;20241;-68
2021/01/23 13:19:29;;;;;;;1.40;0.90;;;;;;;;;;5060512;28;20207;-68
2021/01/23 13:21:57;;;;;;;1.37;0.97;;;;;;;;;;5060196;28;20202;-71
2021/01/23 13:24:24;;;;;;;1.13;1.00;;;;;;;;;;5060238;28;20321;-68
2021/01/23 13:26:52;;;;;;;1.93;1.00;;;;;;;;;;5060329;28;20203;-68
2021/01/23 13:29:19;;;;;;;2.93;1.00;;;;;;;;;;5060154;28;20203;-67
2021/01/23 13:31:46;;;;;;;0.80;0.60;;;;;;;;;;5060202;28;20306;-67
2021/01/23 13:34:13;;;;;;;0.80;0.80;;;;;;;;;;5060155;28;20232;-68
2021/01/23 13:36:40;;;;;;;1.37;0.80;;;;;;;;;;5059793;28;20234;-67
2021/01/23 13:39:09;;;;;;;1.47;0.67;;;;;;;;;;5059743;28;20274;-67
2021/01/23 13:41:36;;;;;;;1.57;0.70;;;;;;;;;;5059847;28;20610;-67
2021/01/23 13:44:03;;;;;;;1.27;0.97;;;;;;;;;;5060032;28;20203;-67
2021/01/23 13:46:30;;;;;;;1.20;0.83;;;;;;;;;;5059678;28;20718;-68
2021/01/23 13:48:58;;;;;;;1.77;0.87;;;;;;;;;;5060103;28;20206;-68
2021/01/23 13:51:25;;;;;;;3.57;1.47;;;;;;;;;;5059427;28;20261;-68
2021/01/23 13:53:52;;;;;;;1.00;1.00;;;;;;;;;;5059816;28;20262;-68
2021/01/23 13:56:20;;;;;;;1.13;0.80;;;;;;;;;;5059280;28;20710;-68
2021/01/23 13:58:46;;;;;;;1.00;0.90;;;;;;;;;;5059608;28;20229;-68
2021/01/23 14:01:13;;;;;;;1.70;0.90;;;;;;;;;;5059629;28;20286;-68
2021/01/23 14:03:41;;;;;;;2.87;1.23;;;;;;;;;;5060018;28;20210;-68
2021/01/23 14:06:07;;;;;;;2.43;1.20;;;;;;;;;;5059150;28;20247;-68
2021/01/23 14:08:34;;;;;;;0.90;0.90;;;;;;;;;;5059574;28;20582;-68
2021/01/23 14:11:01;;;;;;;2.70;1.00;;;;;;;;;;5058718;28;20569;-68
2021/01/23 14:13:30;;;;;;;2.40;1.00;;;;;;;;;;5059443;28;20213;-68
2021/01/23 14:15:57;;;;;;;1.00;0.90;;;;;;;;;;5059438;28;20237;-67
2021/01/23 14:18:24;;;;;;;0.90;0.90;;;;;;;;;;5059196;28;20291;-68
2021/01/23 14:20:51;;;;;;;1.53;1.40;;;;;;;;;;5058906;28;20298;-67
2021/01/23 14:23:18;;;;;;;4.17;1.20;;;;;;;;;;5059200;28;20206;-68
2021/01/23 14:25:45;;;;;;;3.63;1.53;;;;;;;;;;5058909;28;20310;-68
2021/01/23 14:28:12;;;;;;;1.50;1.37;;;;;;;;;;5059172;28;20206;-68
2021/01/23 14:30:41;;;;;;;0.90;0.90;;;;;;;;;;5059082;28;20214;-68
2021/01/23 14:33:08;;;;;;;1.17;0.80;;;;;;;;;;5059079;28;20237;-68
2021/01/23 14:35:35;;;;;;;5.83;1.40;;;;;;;;;;5059088;28;20223;-67
2021/01/23 14:38:02;;;;;;;1.07;1.07;;;;;;;;;;5059710;28;20270;-67
2021/01/23 14:40:31;;;;;;;0.60;0.60;;;;;;;;;;5058951;28;20249;-67
2021/01/23 14:42:58;;;;;;;1.00;0.87;;;;;;;;;;5059019;28;20210;-67
2021/01/23 14:45:25;;;;;;;2.23;1.07;;;;;;;;;;5058581;28;20254;-68
2021/01/23 14:47:53;;;;;;;0.90;0.83;;;;;;;;;;5058989;28;20245;-67
2021/01/23 14:50:20;;;;;;;1.87;1.00;;;;;;;;;;5058231;28;20282;-68